createdAt,value
2023-05-12T00:02:22.227Z,15.13
2023-05-12T00:04:52.317Z,14.97
2023-05-12T00:07:22.333Z,14.92
2023-05-12T00:09:52.333Z,14.94
2023-05-12T00:12:22.194Z,14.98
2023-05-12T00:14:52.065Z,14.99
2023-05-12T00:17:24.673Z,14.57
2023-05-12T00:19:54.544Z,14.93
2023-05-12T00:22:24.322Z,14.82
2023-05-12T00:24:54.170Z,14.66
2023-05-12T00:27:23.952Z,14.53
2023-05-12T00:29:53.881Z,14.51
2023-05-12T00:32:26.454Z,14.59
2023-05-12T00:34:57.287Z,14.45
2023-05-12T00:37:27.167Z,14.25
2023-05-12T00:39:57.095Z,14.45
2023-05-12T00:42:26.912Z,14.69
2023-05-12T00:44:56.695Z,14.61
2023-05-12T00:47:29.605Z,14.88
2023-05-12T00:49:59.803Z,14.79
2023-05-12T00:52:30.569Z,14.77
2023-05-12T00:55:01.024Z,14.81
2023-05-12T00:57:30.960Z,14.73
2023-05-12T01:00:00.849Z,14.93
2023-05-12T01:02:33.703Z,14.93
2023-05-12T01:05:03.771Z,14.85
2023-05-12T01:07:35.693Z,14.90
2023-05-12T01:10:05.488Z,14.83
2023-05-12T01:12:38.565Z,14.96
2023-05-12T01:15:10.155Z,14.86
2023-05-12T01:17:45.281Z,15.12
2023-05-12T01:20:18.000Z,15.06
2023-05-12T01:22:51.068Z,15.04
2023-05-12T01:25:25.318Z,15.03
2023-05-12T01:27:58.180Z,15.03
2023-05-12T01:30:29.222Z,15.13
2023-05-12T01:32:59.447Z,15.13
2023-05-12T01:35:29.499Z,14.99
2023-05-12T01:38:02.553Z,15.04
2023-05-12T01:40:33.263Z,15.01
2023-05-12T01:43:05.755Z,15.00
2023-05-12T01:45:36.668Z,15.00
2023-05-12T01:48:06.886Z,14.99
2023-05-12T01:50:36.833Z,14.87
2023-05-12T01:53:10.563Z,14.84
2023-05-12T01:55:40.640Z,14.72
2023-05-12T01:58:13.488Z,14.60
2023-05-12T02:00:43.300Z,14.86
2023-05-12T02:03:17.769Z,14.82
2023-05-12T02:05:47.586Z,15.06
2023-05-12T02:08:17.357Z,15.16
2023-05-12T02:10:47.328Z,15.14
2023-05-12T02:13:19.793Z,14.78
2023-05-12T02:15:49.684Z,15.13
2023-05-12T02:18:19.850Z,15.06
2023-05-12T02:20:49.984Z,14.98
2023-05-12T02:23:19.945Z,14.81
2023-05-12T02:25:49.773Z,15.08
2023-05-12T02:28:22.238Z,15.17
2023-05-12T02:30:54.559Z,15.11
2023-05-12T02:33:24.950Z,14.97
2023-05-12T02:35:54.969Z,14.96
2023-05-12T02:38:25.012Z,15.06
2023-05-12T02:40:55.025Z,14.91
2023-05-12T02:43:28.057Z,15.25
2023-05-12T02:45:58.188Z,15.29
2023-05-12T02:48:28.043Z,15.28
2023-05-12T02:50:57.836Z,15.09
2023-05-12T02:53:27.736Z,15.23
2023-05-12T02:55:57.635Z,15.21
2023-05-12T02:58:30.365Z,15.23
2023-05-12T03:01:10.139Z,15.19
2023-05-12T03:03:41.463Z,15.15
2023-05-12T03:06:11.779Z,15.05
2023-05-12T03:08:42.057Z,14.89
2023-05-12T03:11:11.886Z,15.15
2023-05-12T03:13:44.706Z,15.15
2023-05-12T03:16:14.765Z,15.18
2023-05-12T03:18:44.699Z,15.18
2023-05-12T03:21:14.642Z,15.16
2023-05-12T03:23:44.603Z,15.19
2023-05-12T03:26:14.604Z,15.18
2023-05-12T03:28:47.030Z,15.18
2023-05-12T03:31:18.149Z,15.31
2023-05-12T03:33:48.445Z,15.01
2023-05-12T03:36:18.701Z,15.28
2023-05-12T03:38:48.750Z,15.30
2023-05-12T03:41:20.044Z,15.27
2023-05-12T03:43:52.997Z,15.25
2023-05-12T03:46:23.154Z,15.13
2023-05-12T03:48:52.995Z,15.18
2023-05-12T03:51:22.908Z,14.92
2023-05-12T03:53:54.255Z,15.18
2023-05-12T03:56:24.751Z,14.97
2023-05-12T03:58:57.117Z,15.25
2023-05-12T04:01:26.943Z,15.33
2023-05-12T04:03:56.781Z,15.31
2023-05-12T04:06:26.594Z,15.38
2023-05-12T04:08:56.370Z,15.40
2023-05-12T04:11:26.429Z,15.20
2023-05-12T04:13:58.791Z,15.28
2023-05-12T04:16:28.601Z,15.28
2023-05-12T04:18:58.500Z,15.18
2023-05-12T04:21:28.289Z,14.89
2023-05-12T04:23:58.303Z,15.01
2023-05-12T04:26:30.785Z,15.15
2023-05-12T04:29:03.441Z,15.27
2023-05-12T04:31:33.265Z,15.23
2023-05-12T04:34:04.116Z,15.23
2023-05-12T04:36:34.909Z,15.09
2023-05-12T04:39:05.505Z,15.23
2023-05-12T04:41:36.475Z,15.18
2023-05-12T04:44:09.594Z,15.36
2023-05-12T04:46:39.438Z,15.37
2023-05-12T04:49:09.296Z,15.12
2023-05-12T04:51:42.390Z,15.23
2023-05-12T04:54:12.564Z,15.15
2023-05-12T04:56:42.393Z,15.19
2023-05-12T04:59:15.919Z,15.21
2023-05-12T05:01:46.799Z,15.23
2023-05-12T05:04:26.270Z,15.32
2023-05-12T05:06:56.289Z,15.05
2023-05-12T05:09:26.923Z,15.05
2023-05-12T05:11:56.760Z,15.06
2023-05-12T05:14:29.365Z,15.08
2023-05-12T05:17:00.266Z,15.05
2023-05-12T05:22:05.241Z,14.96
2023-05-12T05:24:35.882Z,15.13
2023-05-12T05:27:05.773Z,15.06
2023-05-12T05:29:38.463Z,15.08
2023-05-12T05:32:09.000Z,15.14
2023-05-12T05:34:39.131Z,15.09
2023-05-12T05:37:09.366Z,14.97
2023-05-12T05:39:40.429Z,15.20
2023-05-12T05:42:10.382Z,15.52
2023-05-12T05:44:43.891Z,15.49
2023-05-12T05:47:14.391Z,15.28
2023-05-12T05:49:44.379Z,15.53
2023-05-12T05:52:14.455Z,15.62
2023-05-12T05:54:44.437Z,15.73
2023-05-12T05:57:14.329Z,15.65
2023-05-12T05:59:46.800Z,15.72
2023-05-12T06:02:16.769Z,15.83
2023-05-12T06:04:47.300Z,15.85
2023-05-12T06:07:20.027Z,15.95
2023-05-12T06:09:50.963Z,16.03
2023-05-12T06:12:20.745Z,16.02
2023-05-12T06:14:53.097Z,16.15
2023-05-12T06:17:24.967Z,16.25
2023-05-12T06:19:55.135Z,16.39
2023-05-12T06:22:25.178Z,16.55
2023-05-12T06:24:55.287Z,16.63
2023-05-12T06:27:25.112Z,16.69
2023-05-12T06:29:57.614Z,16.53
2023-05-12T06:32:27.670Z,16.44
2023-05-12T06:34:57.616Z,16.59
2023-05-12T06:37:28.195Z,16.79
2023-05-12T06:39:57.920Z,16.91
2023-05-12T06:42:28.507Z,16.85
2023-05-12T06:45:02.761Z,17.08
2023-05-12T06:47:35.123Z,17.07
2023-05-12T06:50:04.905Z,17.17
2023-05-12T06:52:34.665Z,17.15
2023-05-12T06:55:04.855Z,17.23
2023-05-12T06:57:34.819Z,17.40
2023-05-12T07:00:08.111Z,17.45
2023-05-12T07:02:38.018Z,17.35
2023-05-12T07:05:09.082Z,17.50
2023-05-12T07:07:38.978Z,17.49
2023-05-12T07:10:10.686Z,17.43
2023-05-12T07:12:41.027Z,17.58
2023-05-12T07:15:14.440Z,17.67
2023-05-12T07:17:44.262Z,17.71
2023-05-12T07:20:14.751Z,17.78
2023-05-12T07:22:44.579Z,17.90
2023-05-12T07:25:14.370Z,17.70
2023-05-12T07:27:44.452Z,17.82
2023-05-12T07:30:17.314Z,18.03
2023-05-12T07:32:47.368Z,17.94
2023-05-12T07:35:17.494Z,17.90
2023-05-12T07:37:47.344Z,17.98
2023-05-12T07:40:17.265Z,17.73
2023-05-12T07:42:47.104Z,18.08
2023-05-12T07:45:23.347Z,18.34
2023-05-12T07:47:53.905Z,18.11
2023-05-12T07:50:24.219Z,18.12
2023-05-12T07:52:55.477Z,17.96
2023-05-12T07:55:26.334Z,18.22
2023-05-12T07:57:56.155Z,18.15
2023-05-12T08:00:28.670Z,18.28
2023-05-12T08:02:59.357Z,18.12
2023-05-12T08:05:29.307Z,17.99
2023-05-12T08:07:59.116Z,18.25
2023-05-12T08:10:30.085Z,18.28
2023-05-12T08:12:59.883Z,18.39
2023-05-12T08:15:32.250Z,18.54
2023-05-12T08:18:02.170Z,18.71
2023-05-12T08:20:32.349Z,18.58
2023-05-12T08:23:02.241Z,18.49
2023-05-12T08:25:36.392Z,18.51
2023-05-12T08:28:06.573Z,18.52
2023-05-12T08:30:40.229Z,18.57
2023-05-12T08:33:11.198Z,18.60
2023-05-12T08:35:41.054Z,18.51
2023-05-12T08:38:10.874Z,18.64
2023-05-12T08:41:00.081Z,18.58
2023-05-12T08:43:40.529Z,18.77
2023-05-12T08:46:14.109Z,18.83
2023-05-12T08:48:44.918Z,19.15
2023-05-12T08:51:16.808Z,19.37
2023-05-12T08:53:47.672Z,19.50
2023-05-12T08:58:54.625Z,19.77
2023-05-12T09:01:29.919Z,19.95
2023-05-12T09:04:00.307Z,19.11
2023-05-12T09:06:33.549Z,19.33
2023-05-12T09:09:08.309Z,19.73
2023-05-12T09:11:39.393Z,20.06
2023-05-12T09:14:12.996Z,19.81
2023-05-12T09:16:49.065Z,19.78
2023-05-12T09:19:23.946Z,20.23
2023-05-12T09:21:56.570Z,20.20
2023-05-12T09:24:37.718Z,20.22
2023-05-12T09:27:10.394Z,18.14
2023-05-12T09:29:59.625Z,19.82
2023-05-12T09:32:43.533Z,19.90
2023-05-12T09:35:14.542Z,20.06
2023-05-12T09:37:44.498Z,19.39
2023-05-12T09:40:15.228Z,19.87
2023-05-12T09:42:45.422Z,20.21
2023-05-12T09:45:17.453Z,20.45
2023-05-12T09:47:49.988Z,20.32
2023-05-12T09:50:19.880Z,20.60
2023-05-12T09:52:50.324Z,20.59
2023-05-12T09:55:21.472Z,20.35
2023-05-12T09:57:52.498Z,20.45
2023-05-12T10:00:38.584Z,20.68
2023-05-12T10:03:18.856Z,20.94
2023-05-12T10:05:58.344Z,20.91
2023-05-12T10:08:35.018Z,21.15
2023-05-12T10:11:07.992Z,21.44
2023-05-12T10:13:38.738Z,21.68
2023-05-12T10:16:10.619Z,21.62
2023-05-12T10:18:46.366Z,21.29
2023-05-12T10:21:17.913Z,21.35
2023-05-12T10:23:51.177Z,21.43
2023-05-12T10:26:24.784Z,21.33
2023-05-12T10:28:59.400Z,21.35
2023-05-12T10:31:30.699Z,21.31
2023-05-12T10:34:04.938Z,21.42
2023-05-12T10:36:34.774Z,21.72
2023-05-12T10:39:08.179Z,21.29
2023-05-12T10:41:38.722Z,21.88
2023-05-12T10:44:09.328Z,21.85
2023-05-12T10:46:39.173Z,21.81
2023-05-12T10:49:15.844Z,22.17
2023-05-12T10:51:53.773Z,22.11
2023-05-12T10:54:29.012Z,22.09
2023-05-12T10:57:02.720Z,21.94
2023-05-12T10:59:33.146Z,22.26
2023-05-12T11:02:07.133Z,21.95
2023-05-12T11:04:51.681Z,22.55
2023-05-12T11:07:26.693Z,22.69
2023-05-12T11:10:01.051Z,22.86
2023-05-12T11:12:37.612Z,22.86
2023-05-12T11:15:18.126Z,22.57
2023-05-12T11:17:49.595Z,22.25
2023-05-12T11:20:30.869Z,22.27
2023-05-12T11:23:01.470Z,22.19
2023-05-12T11:25:31.332Z,22.20
2023-05-12T11:28:01.156Z,22.36
2023-05-12T11:30:30.926Z,22.32
2023-05-12T11:33:04.391Z,22.50
2023-05-12T11:35:37.024Z,22.56
2023-05-12T11:38:18.102Z,22.54
2023-05-12T11:40:48.585Z,22.84
2023-05-12T11:43:23.185Z,22.78
2023-05-12T11:45:53.080Z,22.62
2023-05-12T11:48:22.886Z,22.88
2023-05-12T11:50:55.350Z,23.19
2023-05-12T11:53:25.567Z,23.16
2023-05-12T11:55:59.376Z,23.26
2023-05-12T11:58:30.906Z,23.28
2023-05-12T12:01:12.115Z,23.40
2023-05-12T12:03:49.636Z,23.79
2023-05-12T12:06:22.840Z,23.84
2023-05-12T12:08:54.037Z,23.74
2023-05-12T12:11:24.419Z,23.61
2023-05-12T12:13:56.914Z,23.52
2023-05-12T12:16:28.116Z,23.49
2023-05-12T12:18:58.723Z,23.60
2023-05-12T12:21:31.248Z,23.29
2023-05-12T12:24:01.038Z,23.41
2023-05-12T12:26:30.925Z,23.48
2023-05-12T12:29:00.678Z,23.52
2023-05-12T12:31:30.776Z,23.43
2023-05-12T12:34:00.927Z,23.46
2023-05-12T12:36:33.448Z,23.90
2023-05-12T12:39:03.361Z,23.86
2023-05-12T12:41:33.217Z,23.91
2023-05-12T12:44:02.997Z,23.82
2023-05-12T12:46:32.964Z,23.73
2023-05-12T12:49:02.746Z,23.62
2023-05-12T12:51:44.534Z,23.95
2023-05-12T12:54:15.191Z,23.79
2023-05-12T12:56:45.734Z,23.64
2023-05-12T12:59:15.808Z,24.03
2023-05-12T13:01:45.619Z,24.17
2023-05-12T13:04:15.489Z,24.08
2023-05-12T13:06:48.265Z,24.17
2023-05-12T13:09:19.959Z,24.18
2023-05-12T13:11:50.418Z,24.25
2023-05-12T13:14:20.239Z,24.47
2023-05-12T13:16:50.031Z,24.64
2023-05-12T13:19:21.873Z,24.60
2023-05-12T13:21:54.208Z,24.70
2023-05-12T13:24:24.225Z,24.65
2023-05-12T13:26:54.048Z,24.38
2023-05-12T13:29:23.843Z,24.43
2023-05-12T13:31:54.473Z,24.36
2023-05-12T13:34:24.331Z,24.17
2023-05-12T13:36:56.725Z,24.00
2023-05-12T13:39:26.472Z,23.75
2023-05-12T13:41:56.468Z,23.71
2023-05-12T13:44:28.980Z,24.12
2023-05-12T13:46:58.881Z,23.97
2023-05-12T13:49:28.640Z,23.72
2023-05-12T13:52:00.973Z,23.90
2023-05-12T13:54:30.723Z,24.11
2023-05-12T13:57:01.000Z,24.18
2023-05-12T13:59:30.944Z,24.42
2023-05-12T14:02:01.304Z,24.46
2023-05-12T14:04:31.250Z,24.21
2023-05-12T14:07:03.748Z,24.31
2023-05-12T14:09:34.079Z,24.13
2023-05-12T14:12:04.557Z,24.09
2023-05-12T14:14:34.290Z,24.00
2023-05-12T14:17:04.119Z,23.93
2023-05-12T14:19:35.801Z,23.97
2023-05-12T14:22:18.779Z,23.91
2023-05-12T14:24:55.833Z,23.88
2023-05-12T14:27:26.273Z,24.09
2023-05-12T14:29:56.048Z,24.14
2023-05-12T14:32:25.814Z,24.14
2023-05-12T14:34:55.606Z,24.15
2023-05-12T14:37:28.216Z,24.24
2023-05-12T14:39:58.022Z,24.16
2023-05-12T14:42:29.587Z,24.17
2023-05-12T14:44:59.354Z,23.94
2023-05-12T14:47:29.199Z,24.39
2023-05-12T14:49:59.042Z,24.02
2023-05-12T14:52:33.992Z,24.15
2023-05-12T14:55:03.897Z,24.14
2023-05-12T14:57:35.824Z,24.10
2023-05-12T15:00:05.634Z,24.09
2023-05-12T15:02:36.201Z,24.29
2023-05-12T15:05:07.283Z,24.15
2023-05-12T15:07:40.134Z,24.22
2023-05-12T15:10:10.887Z,24.25
2023-05-12T15:12:40.676Z,24.17
2023-05-12T15:15:12.297Z,24.16
2023-05-12T15:17:42.669Z,23.93
2023-05-12T15:20:12.875Z,24.03
2023-05-12T15:22:45.225Z,24.17
2023-05-12T15:25:15.015Z,24.19
2023-05-12T15:27:44.771Z,24.29
2023-05-12T15:30:16.353Z,24.23
2023-05-12T15:32:46.430Z,24.05
2023-05-12T15:35:16.552Z,24.05
2023-05-12T15:37:48.928Z,23.97
2023-05-12T15:40:18.790Z,23.97
2023-05-12T15:42:48.597Z,24.09
2023-05-12T15:45:19.120Z,24.10
2023-05-12T15:47:49.196Z,24.03
2023-05-12T15:50:22.959Z,23.89
2023-05-12T15:52:55.935Z,23.81
2023-05-12T15:55:25.753Z,23.67
2023-05-12T15:57:56.457Z,23.69
2023-05-12T16:00:26.516Z,23.65
2023-05-12T16:02:56.897Z,23.71
2023-05-12T16:05:26.813Z,23.71
2023-05-12T16:07:59.169Z,23.73
2023-05-12T16:10:28.929Z,23.73
2023-05-12T16:12:58.662Z,23.64
2023-05-12T16:15:28.705Z,23.54
2023-05-12T16:17:58.554Z,23.51
2023-05-12T16:20:29.155Z,23.65
2023-05-12T16:23:02.094Z,23.65
2023-05-12T16:25:31.917Z,23.63
2023-05-12T16:28:01.703Z,23.46
2023-05-12T16:30:31.759Z,23.52
2023-05-12T16:33:01.687Z,23.44
2023-05-12T16:35:31.484Z,23.32
2023-05-12T16:38:03.820Z,23.25
2023-05-12T16:40:33.635Z,23.33
2023-05-12T16:43:03.442Z,23.45
2023-05-12T16:45:34.072Z,23.32
2023-05-12T16:48:04.081Z,23.35
2023-05-12T16:50:34.176Z,23.41
2023-05-12T16:53:06.697Z,23.58
2023-05-12T16:55:36.528Z,23.47
2023-05-12T16:58:07.314Z,23.52
2023-05-12T17:00:37.443Z,23.38
2023-05-12T17:03:09.201Z,23.52
2023-05-12T17:05:39.100Z,23.40
2023-05-12T17:08:11.595Z,23.43
2023-05-12T17:10:41.540Z,23.31
2023-05-12T17:13:11.961Z,23.19
2023-05-12T17:15:42.417Z,22.97
2023-05-12T17:18:13.118Z,22.92
2023-05-12T17:20:43.550Z,22.93
2023-05-12T17:23:15.919Z,23.65
2023-05-12T17:25:45.694Z,23.06
2023-05-12T17:28:15.502Z,22.98
2023-05-12T17:30:46.031Z,22.74
2023-05-12T17:33:15.986Z,22.81
2023-05-12T17:35:59.549Z,22.81
2023-05-12T17:38:38.562Z,22.64
2023-05-12T17:41:08.638Z,22.57
2023-05-12T17:43:38.557Z,22.59
2023-05-12T17:46:09.341Z,22.43
2023-05-12T17:48:39.230Z,22.56
2023-05-12T17:51:09.538Z,22.43
2023-05-12T17:53:41.906Z,22.41
2023-05-12T17:56:11.696Z,22.28
2023-05-12T17:58:41.764Z,22.27
2023-05-12T18:01:11.623Z,22.24
2023-05-12T18:03:41.522Z,22.11
2023-05-12T18:06:12.997Z,22.15
2023-05-12T18:08:45.398Z,22.07
2023-05-12T18:11:15.172Z,21.90
2023-05-12T18:13:44.996Z,21.81
2023-05-12T18:16:27.618Z,21.79
2023-05-12T18:18:58.683Z,21.67
2023-05-12T18:21:28.606Z,21.52
2023-05-12T18:24:01.362Z,21.66
2023-05-12T18:26:31.808Z,21.48
2023-05-12T18:29:01.716Z,21.34
2023-05-12T18:31:31.838Z,21.38
2023-05-12T18:34:01.654Z,21.32
2023-05-12T18:36:31.572Z,21.06
2023-05-12T18:39:04.543Z,21.12
2023-05-12T18:41:34.382Z,21.04
2023-05-12T18:44:04.128Z,21.02
2023-05-12T18:46:34.166Z,20.88
2023-05-12T18:49:04.107Z,20.74
2023-05-12T18:51:34.107Z,20.75
2023-05-12T18:54:07.216Z,20.58
2023-05-12T18:56:37.238Z,20.52
2023-05-12T18:59:07.013Z,20.30
2023-05-12T19:01:37.009Z,20.31
2023-05-12T19:04:07.191Z,20.27
2023-05-12T19:06:37.159Z,20.19
2023-05-12T19:09:09.521Z,20.08
2023-05-12T19:11:39.332Z,19.90
2023-05-12T19:14:09.243Z,19.95
2023-05-12T19:16:39.995Z,19.84
2023-05-12T19:19:10.063Z,19.71
2023-05-12T19:21:40.019Z,19.64
2023-05-12T19:24:12.937Z,19.61
2023-05-12T19:26:42.686Z,19.45
2023-05-12T19:29:12.529Z,19.33
2023-05-12T19:31:42.386Z,19.39
2023-05-12T19:34:12.424Z,19.25
2023-05-12T19:36:42.267Z,19.27
2023-05-12T19:39:14.651Z,19.13
2023-05-12T19:41:44.490Z,19.06
2023-05-12T19:44:14.222Z,18.99
2023-05-12T19:46:44.016Z,18.96
2023-05-12T19:49:13.800Z,18.97
2023-05-12T19:51:43.694Z,18.86
2023-05-12T19:54:16.317Z,18.88
2023-05-12T19:56:46.049Z,18.65
2023-05-12T19:59:15.807Z,18.69
2023-05-12T20:01:45.713Z,18.73
2023-05-12T20:04:15.626Z,18.63
2023-05-12T20:06:45.573Z,18.64
2023-05-12T20:09:20.730Z,18.65
2023-05-12T20:11:50.678Z,18.41
2023-05-12T20:14:20.433Z,18.36
2023-05-12T20:16:50.428Z,18.37
2023-05-12T20:19:20.644Z,18.35
2023-05-12T20:21:50.472Z,18.28
2023-05-12T20:24:22.928Z,18.13
2023-05-12T20:26:52.691Z,18.05
2023-05-12T20:29:23.528Z,18.03
2023-05-12T20:31:54.640Z,18.02
2023-05-12T20:34:24.533Z,17.98
2023-05-12T20:36:54.344Z,17.74
2023-05-12T20:39:26.985Z,17.82
2023-05-12T20:41:57.021Z,17.67
2023-05-12T20:44:27.286Z,17.59
2023-05-12T20:46:57.066Z,17.33
2023-05-12T20:49:26.988Z,17.32
2023-05-12T20:51:56.786Z,17.10
2023-05-12T20:54:29.366Z,17.31
2023-05-12T20:56:59.162Z,17.34
2023-05-12T20:59:28.899Z,17.15
2023-05-12T21:01:59.150Z,16.67
2023-05-12T21:04:29.155Z,16.89
2023-05-12T21:06:58.900Z,16.81
2023-05-12T21:09:31.395Z,16.79
2023-05-12T21:12:01.409Z,16.66
2023-05-12T21:14:31.263Z,16.48
2023-05-12T21:17:01.131Z,16.53
2023-05-12T21:19:30.982Z,16.46
2023-05-12T21:22:00.756Z,16.03
2023-05-12T21:24:33.162Z,16.21
2023-05-12T21:27:05.224Z,16.26
2023-05-12T21:29:36.585Z,16.32
2023-05-12T21:32:07.014Z,16.42
2023-05-12T21:34:36.838Z,16.42
2023-05-12T21:37:06.828Z,16.48
2023-05-12T21:39:39.191Z,16.13
2023-05-12T21:42:09.672Z,16.43
2023-05-12T21:44:39.459Z,16.39
2023-05-12T21:47:09.330Z,16.31
2023-05-12T21:49:39.068Z,16.24
2023-05-12T21:52:09.156Z,16.06
2023-05-12T21:54:41.723Z,15.91
2023-05-12T21:57:11.534Z,15.75
2023-05-12T21:59:41.326Z,15.68
2023-05-12T22:02:11.219Z,15.55
2023-05-12T22:04:41.021Z,15.66
2023-05-12T22:07:10.772Z,15.70
2023-05-12T22:09:43.104Z,15.83
2023-05-12T22:12:18.234Z,15.42
2023-05-12T22:14:48.207Z,15.37
2023-05-12T22:17:17.976Z,15.02
2023-05-12T22:19:47.854Z,15.16
2023-05-12T22:22:18.001Z,15.34
2023-05-12T22:24:50.339Z,15.45
2023-05-12T22:27:22.343Z,15.42
2023-05-12T22:29:52.207Z,15.37
2023-05-12T22:32:22.022Z,15.40
2023-05-12T22:34:51.791Z,15.41
2023-05-12T22:37:22.359Z,15.23
2023-05-12T22:39:54.901Z,14.88
2023-05-12T22:42:25.186Z,14.86
2023-05-12T22:44:54.942Z,14.78
2023-05-12T22:47:24.776Z,14.70
2023-05-12T22:49:54.531Z,14.75
2023-05-12T22:52:24.297Z,14.64
2023-05-12T22:54:57.790Z,14.71
2023-05-12T22:57:27.697Z,14.54
2023-05-12T22:59:57.613Z,14.43
2023-05-12T23:02:27.437Z,14.60
2023-05-12T23:04:57.204Z,14.55
2023-05-12T23:07:27.185Z,14.48
2023-05-12T23:09:59.529Z,14.40
2023-05-12T23:12:29.297Z,14.36
2023-05-12T23:14:59.066Z,14.35
2023-05-12T23:17:28.876Z,14.22
2023-05-12T23:19:58.706Z,14.30
2023-05-12T23:22:28.539Z,14.35
2023-05-12T23:25:01.042Z,14.15
2023-05-12T23:27:30.852Z,14.16
2023-05-12T23:30:00.613Z,14.11
2023-05-12T23:32:30.534Z,14.31
2023-05-12T23:35:00.625Z,14.26
2023-05-12T23:37:30.450Z,14.22
2023-05-12T23:40:04.120Z,14.35
2023-05-12T23:42:33.933Z,14.15
2023-05-12T23:45:03.717Z,14.34
2023-05-12T23:47:33.509Z,14.22
2023-05-12T23:50:04.267Z,13.90
2023-05-12T23:52:34.072Z,14.12
2023-05-12T23:55:06.878Z,14.08
2023-05-12T23:57:36.651Z,13.94
